createdAt,value
2022-11-03T00:01:43.000Z,99939.88
2022-11-03T00:04:11.832Z,99931.69
2022-11-03T00:06:39.087Z,99927.88
2022-11-03T00:09:07.507Z,99928.31
2022-11-03T00:11:36.108Z,99935.91
2022-11-03T00:14:03.491Z,99913.78
2022-11-03T00:16:30.534Z,99914.06
2022-11-03T00:18:56.919Z,99909.88
2022-11-03T00:21:23.482Z,99912.59
2022-11-03T00:23:50.326Z,99906.03
2022-11-03T00:26:22.150Z,99914.47
2022-11-03T00:28:50.846Z,99918.53
2022-11-03T00:31:23.475Z,99906.34
2022-11-03T00:33:50.801Z,99922.19
2022-11-03T00:36:25.354Z,99918.41
2022-11-03T00:38:52.244Z,99909.81
2022-11-03T00:41:22.786Z,99909.72
2022-11-03T00:43:50.511Z,99892.22
2022-11-03T00:46:18.390Z,99891.13
2022-11-03T00:48:44.834Z,99882.50
2022-11-03T00:51:12.789Z,99885.66
2022-11-03T00:53:44.343Z,99888.44
2022-11-03T00:56:14.154Z,99885.06
2022-11-03T00:58:42.107Z,99888.44
2022-11-03T01:01:12.403Z,99885.41
2022-11-03T01:03:41.707Z,99901.72
2022-11-03T01:06:30.433Z,99901.03
2022-11-03T01:08:59.099Z,99899.63
2022-11-03T01:11:43.668Z,99897.88
2022-11-03T01:14:13.637Z,99895.69
2022-11-03T01:16:41.022Z,99885.91
2022-11-03T01:19:08.104Z,99883.47
2022-11-03T01:21:35.026Z,99880.81
2022-11-03T01:24:03.075Z,99874.09
2022-11-03T01:26:30.066Z,99876.81
2022-11-03T01:28:58.902Z,99862.78
2022-11-03T01:31:26.464Z,99866.84
2022-11-03T01:33:55.151Z,99853.03
2022-11-03T01:36:21.790Z,99848.91
2022-11-03T01:38:48.537Z,99845.75
2022-11-03T01:41:17.774Z,99853.16
2022-11-03T01:43:52.025Z,99841.94
2022-11-03T01:46:25.200Z,99844.59
2022-11-03T01:49:05.352Z,99844.19
2022-11-03T01:51:33.914Z,99831.88
2022-11-03T01:54:04.062Z,99834.00
2022-11-03T01:56:33.684Z,99833.56
2022-11-03T01:59:00.761Z,99833.47
2022-11-03T02:01:30.907Z,99821.75
2022-11-03T02:04:07.607Z,99831.88
2022-11-03T02:06:36.357Z,99819.88
2022-11-03T02:09:08.755Z,99822.25
2022-11-03T02:11:54.834Z,99814.28
2022-11-03T02:14:21.716Z,99813.44
2022-11-03T02:16:54.461Z,99812.59
2022-11-03T02:19:30.521Z,99817.81
2022-11-03T02:22:20.118Z,99814.28
2022-11-03T02:25:01.955Z,99809.41
2022-11-03T02:27:28.482Z,99801.09
2022-11-03T02:29:55.321Z,99799.50
2022-11-03T02:32:26.682Z,99797.19
2022-11-03T02:35:08.684Z,99803.97
2022-11-03T02:37:43.530Z,99796.66
2022-11-03T02:40:32.795Z,99794.28
2022-11-03T02:43:00.929Z,99790.03
2022-11-03T02:45:28.345Z,99783.84
2022-11-03T02:47:59.005Z,99773.72
2022-11-03T02:50:34.163Z,99772.72
2022-11-03T02:53:00.983Z,99763.34
2022-11-03T02:55:48.643Z,99763.91
2022-11-03T02:58:41.876Z,99758.94
2022-11-03T03:01:32.631Z,99755.25
2022-11-03T03:04:03.557Z,99749.66
2022-11-03T03:06:39.252Z,99753.88
2022-11-03T03:09:15.549Z,99749.22
2022-11-03T03:11:43.488Z,99745.16
2022-11-03T03:14:18.450Z,99738.94
2022-11-03T03:16:54.884Z,99739.78
2022-11-03T03:19:59.135Z,99752.38
2022-11-03T03:22:35.296Z,99738.63
2022-11-03T03:25:15.787Z,99730.22
2022-11-03T03:27:47.293Z,99720.13
2022-11-03T03:30:14.198Z,99714.50
2022-11-03T03:32:49.608Z,99713.00
2022-11-03T03:35:20.594Z,99715.66
2022-11-03T03:37:51.014Z,99711.81
2022-11-03T03:40:25.165Z,99711.50
2022-11-03T03:42:52.679Z,99709.63
2022-11-03T03:45:20.176Z,99707.41
2022-11-03T03:47:47.470Z,99688.69
2022-11-03T03:50:13.984Z,99688.53
2022-11-03T03:52:40.426Z,99698.47
2022-11-03T03:55:15.621Z,99694.53
2022-11-03T03:57:43.072Z,99693.53
2022-11-03T04:00:13.037Z,99695.25
2022-11-03T04:02:39.722Z,99691.78
2022-11-03T04:05:06.509Z,99686.50
2022-11-03T04:07:48.246Z,99680.47
2022-11-03T04:10:16.422Z,99680.41
2022-11-03T04:13:19.310Z,99681.31
2022-11-03T04:16:04.057Z,99689.84
2022-11-03T04:18:48.824Z,99674.47
2022-11-03T04:21:33.699Z,99676.06
2022-11-03T04:24:02.976Z,99669.28
2022-11-03T04:26:29.453Z,99670.50
2022-11-03T04:28:57.249Z,99670.97
2022-11-03T04:31:23.823Z,99676.34
2022-11-03T04:33:50.910Z,99669.56
2022-11-03T04:36:21.261Z,99670.00
2022-11-03T04:38:48.856Z,99662.47
2022-11-03T04:41:28.503Z,99671.22
2022-11-03T04:43:55.583Z,99661.50
2022-11-03T04:46:27.890Z,99656.22
2022-11-03T04:48:58.394Z,99658.81
2022-11-03T04:51:28.002Z,99664.00
2022-11-03T04:53:58.513Z,99655.69
2022-11-03T04:56:25.770Z,99653.88
2022-11-03T04:58:53.617Z,99646.31
2022-11-03T05:01:24.499Z,99647.81
2022-11-03T05:03:53.888Z,99644.50
2022-11-03T05:06:28.561Z,99632.94
2022-11-03T05:09:24.708Z,99619.50
2022-11-03T05:11:51.189Z,99619.41
2022-11-03T05:14:23.676Z,99614.06
2022-11-03T05:16:53.508Z,99616.00
2022-11-03T05:19:22.441Z,99616.66
2022-11-03T05:21:50.374Z,99594.97
2022-11-03T05:24:21.055Z,99601.06
2022-11-03T05:26:48.809Z,99594.72
2022-11-03T05:29:23.820Z,99604.81
2022-11-03T05:31:53.626Z,99593.19
2022-11-03T05:34:35.116Z,99596.38
2022-11-03T05:37:27.039Z,99599.50
2022-11-03T05:39:57.485Z,99597.53
2022-11-03T05:42:23.830Z,99582.38
2022-11-03T05:44:51.642Z,99571.22
2022-11-03T05:47:25.886Z,99573.25
2022-11-03T05:50:01.803Z,99565.63
2022-11-03T05:52:28.681Z,99550.25
2022-11-03T05:54:57.663Z,99557.53
2022-11-03T05:57:27.706Z,99549.53
2022-11-03T05:59:54.674Z,99549.06
2022-11-03T06:02:37.468Z,99558.44
2022-11-03T06:05:18.357Z,99558.13
2022-11-03T06:07:44.987Z,99545.59
2022-11-03T06:10:31.212Z,99550.81
2022-11-03T06:13:06.119Z,99546.69
2022-11-03T06:15:35.259Z,99556.06
2022-11-03T06:18:14.492Z,99567.38
2022-11-03T06:20:41.544Z,99566.25
2022-11-03T06:23:16.560Z,99547.84
2022-11-03T06:25:43.398Z,99546.19
2022-11-03T06:28:18.266Z,99544.56
2022-11-03T06:30:45.908Z,99540.59
2022-11-03T06:33:39.281Z,99551.38
2022-11-03T06:36:24.709Z,99540.03
2022-11-03T06:38:55.610Z,99537.53
2022-11-03T06:41:27.374Z,99535.56
2022-11-03T06:43:54.264Z,99525.34
2022-11-03T06:46:26.087Z,99530.50
2022-11-03T06:48:58.388Z,99523.84
2022-11-03T06:51:27.625Z,99521.94
2022-11-03T06:53:57.524Z,99527.88
2022-11-03T06:56:31.458Z,99520.25
2022-11-03T06:58:58.395Z,99521.66
2022-11-03T07:01:32.702Z,99523.16
2022-11-03T07:04:12.898Z,99518.53
2022-11-03T07:06:39.403Z,99512.91
2022-11-03T07:09:12.962Z,99518.31
2022-11-03T07:11:47.488Z,99514.25
2022-11-03T07:14:22.910Z,99510.50
2022-11-03T07:17:00.378Z,99511.22
2022-11-03T07:19:30.701Z,99502.56
2022-11-03T07:22:25.447Z,99503.41
2022-11-03T07:24:55.244Z,99498.44
2022-11-03T07:27:53.738Z,99491.56
2022-11-03T07:30:24.411Z,99481.72
2022-11-03T07:32:53.676Z,99480.78
2022-11-03T07:35:41.675Z,99480.16
2022-11-03T07:38:19.482Z,99464.97
2022-11-03T07:40:46.319Z,99474.56
2022-11-03T07:43:19.942Z,99481.44
2022-11-03T07:45:52.085Z,99474.41
2022-11-03T07:48:27.815Z,99457.22
2022-11-03T07:50:57.197Z,99452.28
2022-11-03T07:53:37.151Z,99448.31
2022-11-03T07:56:33.844Z,99451.47
2022-11-03T07:59:04.600Z,99435.91
2022-11-03T08:01:36.616Z,99442.13
2022-11-03T08:04:24.612Z,99430.56
2022-11-03T08:06:51.723Z,99420.66
2022-11-03T08:09:19.050Z,99431.72
2022-11-03T08:11:45.842Z,99422.13
2022-11-03T08:14:12.732Z,99425.94
2022-11-03T08:16:39.352Z,99413.31
2022-11-03T08:19:06.256Z,99407.41
2022-11-03T08:21:32.709Z,99406.34
2022-11-03T08:23:59.154Z,99398.13
2022-11-03T08:26:25.900Z,99398.25
2022-11-03T08:28:52.335Z,99404.66
2022-11-03T08:31:18.961Z,99390.34
2022-11-03T08:33:45.351Z,99393.19
2022-11-03T08:36:11.972Z,99392.88
2022-11-03T08:38:38.817Z,99389.81
2022-11-03T08:41:05.481Z,99376.41
2022-11-03T08:43:31.924Z,99381.88
2022-11-03T08:46:06.645Z,99379.50
2022-11-03T08:48:39.974Z,99379.09
2022-11-03T08:51:08.250Z,99385.16
2022-11-03T08:53:35.323Z,99377.47
2022-11-03T08:56:01.740Z,99371.84
2022-11-03T08:58:28.142Z,99371.31
2022-11-03T09:00:54.539Z,99369.41
2022-11-03T09:03:20.954Z,99372.06
2022-11-03T09:05:47.401Z,99375.00
2022-11-03T09:11:00.186Z,99350.47
2022-11-03T09:13:26.570Z,99348.44
2022-11-03T09:15:52.987Z,99345.59
2022-11-03T09:18:19.390Z,99341.03
2022-11-03T09:20:45.850Z,99353.06
2022-11-03T09:23:12.250Z,99336.41
2022-11-03T09:25:38.689Z,99336.28
2022-11-03T09:28:05.871Z,99322.16
2022-11-03T09:30:32.538Z,99318.09
2022-11-03T09:32:59.088Z,99319.78
2022-11-03T09:35:25.496Z,99305.44
2022-11-03T09:37:51.881Z,99313.94
2022-11-03T09:40:19.415Z,99310.47
2022-11-03T09:42:45.829Z,99300.16
2022-11-03T09:45:12.351Z,99292.22
2022-11-03T09:47:43.719Z,99281.41
2022-11-03T09:50:16.669Z,99277.44
2022-11-03T09:52:48.777Z,99278.13
2022-11-03T09:55:23.797Z,99259.28
2022-11-03T09:57:54.419Z,99264.28
2022-11-03T10:00:22.997Z,99253.22
2022-11-03T10:02:50.431Z,99256.91
2022-11-03T10:05:25.491Z,99259.63
2022-11-03T10:07:57.579Z,99242.78
2022-11-03T10:10:24.538Z,99241.72
2022-11-03T10:12:53.178Z,99228.38
2022-11-03T10:15:22.552Z,99214.53
2022-11-03T10:17:50.581Z,99207.88
2022-11-03T10:20:20.093Z,99194.84
2022-11-03T10:22:49.378Z,99176.63
2022-11-03T10:25:45.824Z,99189.88
2022-11-03T10:28:16.959Z,99192.41
2022-11-03T10:31:17.013Z,99194.78
2022-11-03T10:33:56.036Z,99197.44
2022-11-03T10:36:33.976Z,99189.63
2022-11-03T10:39:25.685Z,99182.13
2022-11-03T10:41:58.396Z,99185.34
2022-11-03T10:44:28.050Z,99180.78
2022-11-03T10:47:02.876Z,99164.66
2022-11-03T10:49:39.289Z,99151.56
2022-11-03T10:52:24.864Z,99138.94
2022-11-03T10:54:54.133Z,99149.91
2022-11-03T10:57:22.544Z,99122.66
2022-11-03T10:59:51.242Z,99136.69
2022-11-03T11:02:22.186Z,99134.50
2022-11-03T11:04:52.445Z,99121.06
2022-11-03T11:07:26.685Z,99108.66
2022-11-03T11:09:54.300Z,99102.97
2022-11-03T11:12:25.100Z,99095.03
2022-11-03T11:14:59.770Z,99080.31
2022-11-03T11:17:41.159Z,99080.97
2022-11-03T11:20:18.749Z,99086.69
2022-11-03T11:22:45.675Z,99083.34
2022-11-03T11:25:12.074Z,99072.66
2022-11-03T11:27:38.420Z,99067.66
2022-11-03T11:30:30.621Z,99065.69
2022-11-03T11:33:01.331Z,99062.66
2022-11-03T11:35:27.654Z,99056.34
2022-11-03T11:37:55.385Z,99065.13
2022-11-03T11:40:24.771Z,99060.56
2022-11-03T11:43:04.234Z,99053.31
2022-11-03T11:46:08.475Z,99049.81
2022-11-03T11:48:35.386Z,99040.91
2022-11-03T11:51:03.738Z,99055.38
2022-11-03T11:53:39.572Z,99036.47
2022-11-03T11:56:10.927Z,99035.88
2022-11-03T11:58:49.165Z,99033.13
2022-11-03T12:01:35.911Z,99038.41
2022-11-03T12:06:48.430Z,99037.44
2022-11-03T12:09:20.682Z,99030.47
2022-11-03T12:11:56.384Z,99027.84
2022-11-03T12:14:32.476Z,99018.22
2022-11-03T12:17:17.695Z,99016.41
2022-11-03T12:19:49.996Z,99010.28
2022-11-03T12:22:26.058Z,99010.28
2022-11-03T12:24:57.198Z,98995.25
2022-11-03T12:27:26.803Z,98983.97
2022-11-03T12:29:55.068Z,98982.16
2022-11-03T12:32:37.125Z,98976.03
2022-11-03T12:35:09.043Z,98954.03
2022-11-03T12:37:35.951Z,98932.34
2022-11-03T12:40:02.596Z,98921.88
2022-11-03T12:42:29.007Z,98920.78
2022-11-03T12:44:55.873Z,98905.19
2022-11-03T12:47:22.255Z,98901.41
2022-11-03T12:49:48.796Z,98903.78
2022-11-03T12:52:15.337Z,98908.22
2022-11-03T12:54:42.377Z,98912.41
2022-11-03T12:57:08.942Z,98912.81
2022-11-03T12:59:35.374Z,98918.94
2022-11-03T13:02:01.864Z,98909.06
2022-11-03T13:04:28.335Z,98902.63
2022-11-03T13:06:54.754Z,98886.91
2022-11-03T13:09:21.451Z,98888.03
2022-11-03T13:12:06.218Z,98880.94
2022-11-03T13:14:32.599Z,98882.59
2022-11-03T13:16:58.977Z,98889.41
2022-11-03T13:19:25.800Z,98869.81
2022-11-03T13:21:52.161Z,98861.88
2022-11-03T13:24:18.545Z,98851.31
2022-11-03T13:26:44.919Z,98841.00
2022-11-03T13:29:11.436Z,98840.03
2022-11-03T13:31:37.878Z,98820.13
2022-11-03T13:34:04.317Z,98805.91
2022-11-03T13:36:30.796Z,98799.78
2022-11-03T13:38:57.316Z,98792.16
2022-11-03T13:41:23.679Z,98789.19
2022-11-03T13:43:50.085Z,98778.78
2022-11-03T13:46:16.442Z,98770.59
2022-11-03T13:51:29.441Z,98764.50
2022-11-03T13:59:29.018Z,98745.78
2022-11-03T14:04:43.145Z,98732.84
2022-11-03T14:07:10.421Z,98723.06
2022-11-03T14:12:26.859Z,98717.25
2022-11-03T14:14:53.393Z,98703.50
2022-11-03T14:17:19.774Z,98705.00
2022-11-03T14:19:50.381Z,98700.69
2022-11-03T14:22:19.668Z,98706.56
2022-11-03T14:24:46.200Z,98712.38
2022-11-03T14:27:13.604Z,98696.09
2022-11-03T14:29:39.991Z,98673.44
2022-11-03T14:32:06.436Z,98681.59
2022-11-03T14:34:32.978Z,98682.81
2022-11-03T14:36:59.548Z,98657.28
2022-11-03T14:39:26.299Z,98666.72
